sensor_id;sensor_type;location;lat;lon;timestamp;pressure;altitude;pressure_sealevel;temperature;humidity
50682;BME280;36779;52.168;20.878;2024-01-10T00:02:02;102335.80;;;-7.89;68.39
50682;BME280;36779;52.168;20.878;2024-01-10T00:04:59;102333.89;;;-7.97;68.21
50682;BME280;36779;52.168;20.878;2024-01-10T00:07:35;102330.79;;;-7.97;68.52
50682;BME280;36779;52.168;20.878;2024-01-10T00:10:31;102330.27;;;-7.96;68.39
50682;BME280;36779;52.168;20.878;2024-01-10T00:13:14;102328.20;;;-7.93;68.48
50682;BME280;36779;52.168;20.878;2024-01-10T00:16:16;102322.17;;;-7.89;68.60
50682;BME280;36779;52.168;20.878;2024-01-10T00:22:27;102313.21;;;-7.82;68.63
50682;BME280;36779;52.168;20.878;2024-01-10T00:25:06;102313.55;;;-7.78;68.73
50682;BME280;36779;52.168;20.878;2024-01-10T00:28:01;102315.45;;;-7.78;68.56
50682;BME280;36779;52.168;20.878;2024-01-10T00:30:54;102312.19;;;-7.75;68.72
50682;BME280;36779;52.168;20.878;2024-01-10T00:33:47;102312.36;;;-7.71;68.79
50682;BME280;36779;52.168;20.878;2024-01-10T00:36:42;102311.66;;;-7.78;68.61
50682;BME280;36779;52.168;20.878;2024-01-10T00:39:35;102310.96;;;-7.74;68.56
50682;BME280;36779;52.168;20.878;2024-01-10T00:42:28;102313.73;;;-7.80;68.33
50682;BME280;36779;52.168;20.878;2024-01-10T00:45:20;102315.27;;;-7.86;68.27
50682;BME280;36779;52.168;20.878;2024-01-10T00:48:13;102312.52;;;-7.87;68.31
50682;BME280;36779;52.168;20.878;2024-01-10T00:51:06;102316.82;;;-7.90;68.30
50682;BME280;36779;52.168;20.878;2024-01-10T00:54:00;102316.98;;;-7.94;68.17
50682;BME280;36779;52.168;20.878;2024-01-10T00:56:56;102318.54;;;-7.96;68.25
50682;BME280;36779;52.168;20.878;2024-01-10T00:59:58;102317.85;;;-7.94;68.41
50682;BME280;36779;52.168;20.878;2024-01-10T01:02:55;102315.95;;;-7.98;68.21
50682;BME280;36779;52.168;20.878;2024-01-10T01:05:53;102317.83;;;-8.04;68.19
50682;BME280;36779;52.168;20.878;2024-01-10T01:08:37;102313.52;;;-8.07;68.20
50682;BME280;36779;52.168;20.878;2024-01-10T01:11:31;102315.09;;;-8.01;68.28
50682;BME280;36779;52.168;20.878;2024-01-10T01:14:25;102314.58;;;-7.91;68.74
50682;BME280;36779;52.168;20.878;2024-01-10T01:17:19;102310.62;;;-7.77;68.79
50682;BME280;36779;52.168;20.878;2024-01-10T01:20:12;102309.05;;;-7.81;68.39
50682;BME280;36779;52.168;20.878;2024-01-10T01:23:08;102310.60;;;-7.96;68.13
50682;BME280;36779;52.168;20.878;2024-01-10T01:26:02;102310.08;;;-7.98;68.35
50682;BME280;36779;52.168;20.878;2024-01-10T01:28:55;102303.88;;;-7.94;68.32
50682;BME280;36779;52.168;20.878;2024-01-10T01:31:48;102302.14;;;-7.94;68.52
50682;BME280;36779;52.168;20.878;2024-01-10T01:34:32;102296.80;;;-7.95;68.58
50682;BME280;36779;52.168;20.878;2024-01-10T01:37:25;102292.14;;;-7.87;68.78
50682;BME280;36779;52.168;20.878;2024-01-10T01:40:17;102291.64;;;-7.83;68.72
50682;BME280;36779;52.168;20.878;2024-01-10T01:43:25;102289.23;;;-7.80;68.78
50682;BME280;36779;52.168;20.878;2024-01-10T01:46:19;102285.59;;;-7.74;68.85
50682;BME280;36779;52.168;20.878;2024-01-10T01:49:12;102280.41;;;-7.79;68.68
50682;BME280;36779;52.168;20.878;2024-01-10T01:52:06;102278.15;;;-7.85;68.50
50682;BME280;36779;52.168;20.878;2024-01-10T01:54:59;102272.45;;;-7.90;68.54
50682;BME280;36779;52.168;20.878;2024-01-10T01:57:55;102273.15;;;-7.93;68.57
50682;BME280;36779;52.168;20.878;2024-01-10T02:00:54;102271.59;;;-7.97;68.46
50682;BME280;36779;52.168;20.878;2024-01-10T02:03:49;102273.15;;;-7.98;68.33
50682;BME280;36779;52.168;20.878;2024-01-10T02:06:36;102270.05;;;-7.98;68.45
50682;BME280;36779;52.168;20.878;2024-01-10T02:09:30;102271.09;;;-7.99;68.50
50682;BME280;36779;52.168;20.878;2024-01-10T02:12:03;102267.11;;;-7.98;68.53
50682;BME280;36779;52.168;20.878;2024-01-10T02:14:41;102271.77;;;-7.97;68.46
50682;BME280;36779;52.168;20.878;2024-01-10T02:17:16;102274.54;;;-7.98;68.47
50682;BME280;36779;52.168;20.878;2024-01-10T02:20:14;102275.40;;;-7.98;68.42
50682;BME280;36779;52.168;20.878;2024-01-10T02:23:08;102275.22;;;-7.89;68.78
50682;BME280;36779;52.168;20.878;2024-01-10T02:25:54;102273.84;;;-7.87;68.56
50682;BME280;36779;52.168;20.878;2024-01-10T02:28:47;102270.05;;;-7.92;68.65
50682;BME280;36779;52.168;20.878;2024-01-10T02:31:39;102270.75;;;-7.87;68.68
50682;BME280;36779;52.168;20.878;2024-01-10T02:34:32;102270.56;;;-7.88;68.64
50682;BME280;36779;52.168;20.878;2024-01-10T02:37:10;102266.08;;;-7.91;68.79
50682;BME280;36779;52.168;20.878;2024-01-10T02:40:05;102269.52;;;-7.96;68.34
50682;BME280;36779;52.168;20.878;2024-01-10T02:43:00;102267.96;;;-8.05;68.35
50682;BME280;36779;52.168;20.878;2024-01-10T02:45:56;102265.88;;;-8.06;68.28
50682;BME280;36779;52.168;20.878;2024-01-10T02:48:51;102261.56;;;-8.14;68.05
50682;BME280;36779;52.168;20.878;2024-01-10T02:51:44;102259.48;;;-8.17;68.27
50682;BME280;36779;52.168;20.878;2024-01-10T02:54:37;102257.59;;;-8.14;68.35
50682;BME280;36779;52.168;20.878;2024-01-10T02:57:29;102254.15;;;-8.11;68.43
50682;BME280;36779;52.168;20.878;2024-01-10T03:00:23;102249.66;;;-8.12;68.29
50682;BME280;36779;52.168;20.878;2024-01-10T03:03:15;102247.94;;;-8.14;68.25
50682;BME280;36779;52.168;20.878;2024-01-10T03:06:16;102241.21;;;-8.14;68.52
50682;BME280;36779;52.168;20.878;2024-01-10T03:09:09;102239.65;;;-8.07;68.73
50682;BME280;36779;52.168;20.878;2024-01-10T03:12:03;102238.12;;;-7.99;68.92
50682;BME280;36779;52.168;20.878;2024-01-10T03:14:56;102234.14;;;-8.01;68.76
50682;BME280;36779;52.168;20.878;2024-01-10T03:17:49;102228.96;;;-8.01;68.69
50682;BME280;36779;52.168;20.878;2024-01-10T03:20:43;102229.48;;;-8.00;68.72
50682;BME280;36779;52.168;20.878;2024-01-10T03:23:36;102223.27;;;-8.04;68.61
50682;BME280;36779;52.168;20.878;2024-01-10T03:26:30;102213.95;;;-8.08;68.65
50682;BME280;36779;52.168;20.878;2024-01-10T03:29:16;102209.64;;;-8.07;68.81
50682;BME280;36779;52.168;20.878;2024-01-10T03:32:09;102216.20;;;-8.06;68.77
50682;BME280;36779;52.168;20.878;2024-01-10T03:35:05;102219.98;;;-8.18;68.17
50682;BME280;36779;52.168;20.878;2024-01-10T03:37:58;102215.65;;;-8.32;68.26
50682;BME280;36779;52.168;20.878;2024-01-10T03:40:51;102216.34;;;-8.28;68.57
50682;BME280;36779;52.168;20.878;2024-01-10T03:43:44;102213.24;;;-8.28;68.55
50682;BME280;36779;52.168;20.878;2024-01-10T03:46:30;102219.27;;;-8.32;68.45
50682;BME280;36779;52.168;20.878;2024-01-10T03:49:23;102213.23;;;-8.36;68.38
50682;BME280;36779;52.168;20.878;2024-01-10T03:52:18;102208.57;;;-8.37;68.35
50682;BME280;36779;52.168;20.878;2024-01-10T03:55:12;102205.65;;;-8.36;68.32
50682;BME280;36779;52.168;20.878;2024-01-10T03:58:06;102204.46;;;-8.39;68.35
50682;BME280;36779;52.168;20.878;2024-01-10T04:00:59;102202.40;;;-8.39;68.22
50682;BME280;36779;52.168;20.878;2024-01-10T04:03:57;102203.95;;;-8.42;68.33
50682;BME280;36779;52.168;20.878;2024-01-10T04:06:41;102205.32;;;-8.44;68.22
50682;BME280;36779;52.168;20.878;2024-01-10T04:09:35;102198.75;;;-8.46;68.29
50682;BME280;36779;52.168;20.878;2024-01-10T04:12:28;102195.48;;;-8.46;68.42
50682;BME280;36779;52.168;20.878;2024-01-10T04:15:23;102188.59;;;-8.44;68.20
50682;BME280;36779;52.168;20.878;2024-01-10T04:18:15;102184.80;;;-8.43;68.39
50682;BME280;36779;52.168;20.878;2024-01-10T04:21:08;102181.52;;;-8.43;68.36
50682;BME280;36779;52.168;20.878;2024-01-10T04:24:04;102180.66;;;-8.44;68.46
50682;BME280;36779;52.168;20.878;2024-01-10T04:26:57;102176.69;;;-8.44;68.48
50682;BME280;36779;52.168;20.878;2024-01-10T04:29:51;102177.04;;;-8.43;68.44
50682;BME280;36779;52.168;20.878;2024-01-10T04:32:46;102176.52;;;-8.41;68.35
50682;BME280;36779;52.168;20.878;2024-01-10T04:35:39;102174.11;;;-8.39;68.57
50682;BME280;36779;52.168;20.878;2024-01-10T04:38:23;102170.82;;;-8.36;68.62
50682;BME280;36779;52.168;20.878;2024-01-10T04:41:18;102169.11;;;-8.39;68.52
50682;BME280;36779;52.168;20.878;2024-01-10T04:44:13;102170.33;;;-8.40;68.69
50682;BME280;36779;52.168;20.878;2024-01-10T04:47:23;102174.11;;;-8.38;68.64
50682;BME280;36779;52.168;20.878;2024-01-10T04:50:34;102171.66;;;-8.34;68.58
50682;BME280;36779;52.168;20.878;2024-01-10T04:53:29;102171.16;;;-8.28;68.78
50682;BME280;36779;52.168;20.878;2024-01-10T04:56:23;102177.70;;;-8.27;68.53
50682;BME280;36779;52.168;20.878;2024-01-10T04:59:24;102179.96;;;-8.38;68.23
50682;BME280;36779;52.168;20.878;2024-01-10T05:02:17;102182.39;;;-8.42;68.36
50682;BME280;36779;52.168;20.878;2024-01-10T05:05:13;102179.63;;;-8.44;68.21
50682;BME280;36779;52.168;20.878;2024-01-10T05:08:27;102182.55;;;-8.42;68.44
50682;BME280;36779;52.168;20.878;2024-01-10T05:11:20;102185.64;;;-8.33;68.62
50682;BME280;36779;52.168;20.878;2024-01-10T05:14:15;102189.62;;;-8.28;68.82
50682;BME280;36779;52.168;20.878;2024-01-10T05:17:08;102188.23;;;-8.26;68.73
50682;BME280;36779;52.168;20.878;2024-01-10T05:20:04;102188.94;;;-8.25;68.58
50682;BME280;36779;52.168;20.878;2024-01-10T05:22:58;102190.98;;;-8.31;68.25
50682;BME280;36779;52.168;20.878;2024-01-10T05:25:58;102191.87;;;-8.40;68.24
50682;BME280;36779;52.168;20.878;2024-01-10T05:28:57;102194.45;;;-8.43;68.27
50682;BME280;36779;52.168;20.878;2024-01-10T05:31:51;102188.08;;;-8.43;68.33
50682;BME280;36779;52.168;20.878;2024-01-10T05:34:51;102185.48;;;-8.43;68.31
50682;BME280;36779;52.168;20.878;2024-01-10T05:37:48;102187.73;;;-8.43;68.37
50682;BME280;36779;52.168;20.878;2024-01-10T05:40:45;102179.11;;;-8.40;68.62
50682;BME280;36779;52.168;20.878;2024-01-10T05:43:38;102184.45;;;-8.39;68.34
50682;BME280;36779;52.168;20.878;2024-01-10T05:46:56;102180.49;;;-8.41;68.43
50682;BME280;36779;52.168;20.878;2024-01-10T05:49:53;102183.20;;;-8.35;68.60
50682;BME280;36779;52.168;20.878;2024-01-10T05:52:51;102181.67;;;-8.35;68.62
50682;BME280;36779;52.168;20.878;2024-01-10T05:55:35;102186.85;;;-8.33;68.68
50682;BME280;36779;52.168;20.878;2024-01-10T05:58:35;102186.34;;;-8.37;68.47
50682;BME280;36779;52.168;20.878;2024-01-10T06:01:42;102179.45;;;-8.45;68.41
50682;BME280;36779;52.168;20.878;2024-01-10T06:04:26;102183.92;;;-8.44;68.38
50682;BME280;36779;52.168;20.878;2024-01-10T06:07:20;102179.64;;;-8.42;68.45
50682;BME280;36779;52.168;20.878;2024-01-10T06:10:13;102179.11;;;-8.44;68.49
50682;BME280;36779;52.168;20.878;2024-01-10T06:13:10;102172.38;;;-8.47;68.38
50682;BME280;36779;52.168;20.878;2024-01-10T06:16:02;102169.80;;;-8.46;68.47
50682;BME280;36779;52.168;20.878;2024-01-10T06:19:03;102170.83;;;-8.47;68.40
50682;BME280;36779;52.168;20.878;2024-01-10T06:21:56;102175.65;;;-8.47;68.45
50682;BME280;36779;52.168;20.878;2024-01-10T06:24:49;102170.83;;;-8.51;68.27
50682;BME280;36779;52.168;20.878;2024-01-10T06:27:27;102169.44;;;-8.51;68.42
50682;BME280;36779;52.168;20.878;2024-01-10T06:30:02;102164.61;;;-8.51;68.52
50682;BME280;36779;52.168;20.878;2024-01-10T06:32:44;102163.05;;;-8.54;68.51
50682;BME280;36779;52.168;20.878;2024-01-10T06:35:42;102162.04;;;-8.50;68.54
50682;BME280;36779;52.168;20.878;2024-01-10T06:38:36;102166.35;;;-8.44;68.69
50682;BME280;36779;52.168;20.878;2024-01-10T06:41:31;102168.06;;;-8.46;68.43
50682;BME280;36779;52.168;20.878;2024-01-10T06:44:25;102174.97;;;-8.45;68.58
50682;BME280;36779;52.168;20.878;2024-01-10T06:47:20;102176.52;;;-8.50;68.53
50682;BME280;36779;52.168;20.878;2024-01-10T06:50:15;102182.20;;;-8.51;68.50
50682;BME280;36779;52.168;20.878;2024-01-10T06:53:10;102180.98;;;-8.54;68.42
50682;BME280;36779;52.168;20.878;2024-01-10T06:56:02;102183.58;;;-8.53;68.38
50682;BME280;36779;52.168;20.878;2024-01-10T06:59:00;102177.20;;;-8.48;68.56
50682;BME280;36779;52.168;20.878;2024-01-10T07:01:58;102182.55;;;-8.49;68.38
50682;BME280;36779;52.168;20.878;2024-01-10T07:04:58;102185.98;;;-8.48;68.58
50682;BME280;36779;52.168;20.878;2024-01-10T07:07:36;102188.59;;;-8.44;68.54
50682;BME280;36779;52.168;20.878;2024-01-10T07:10:11;102186.70;;;-8.42;68.34
50682;BME280;36779;52.168;20.878;2024-01-10T07:12:46;102187.04;;;-8.40;68.36
50682;BME280;36779;52.168;20.878;2024-01-10T07:15:21;102184.11;;;-8.38;68.50
50682;BME280;36779;52.168;20.878;2024-01-10T07:17:57;102191.20;;;-8.39;68.32
50682;BME280;36779;52.168;20.878;2024-01-10T07:20:35;102194.25;;;-8.36;68.45
50682;BME280;36779;52.168;20.878;2024-01-10T07:23:31;102193.39;;;-8.34;68.29
50682;BME280;36779;52.168;20.878;2024-01-10T07:26:29;102190.30;;;-8.32;68.41
50682;BME280;36779;52.168;20.878;2024-01-10T07:29:14;102193.06;;;-8.26;68.52
50682;BME280;36779;52.168;20.878;2024-01-10T07:32:16;102191.52;;;-8.20;68.48
50682;BME280;36779;52.168;20.878;2024-01-10T07:35:08;102186.16;;;-8.17;68.50
50682;BME280;36779;52.168;20.878;2024-01-10T07:38:01;102183.41;;;-8.16;68.29
50682;BME280;36779;52.168;20.878;2024-01-10T07:40:35;102182.04;;;-8.08;68.75
50682;BME280;36779;52.168;20.878;2024-01-10T07:43:11;102184.11;;;-8.06;68.61
50682;BME280;36779;52.168;20.878;2024-01-10T07:46:04;102184.45;;;-8.14;68.34
50682;BME280;36779;52.168;20.878;2024-01-10T07:49:20;102184.63;;;-8.18;68.26
50682;BME280;36779;52.168;20.878;2024-01-10T07:52:10;102187.71;;;-8.12;68.55
50682;BME280;36779;52.168;20.878;2024-01-10T07:55:06;102193.77;;;-8.03;68.65
50682;BME280;36779;52.168;20.878;2024-01-10T07:57:51;102194.80;;;-8.03;68.42
50682;BME280;36779;52.168;20.878;2024-01-10T08:00:44;102189.79;;;-8.01;68.69
50682;BME280;36779;52.168;20.878;2024-01-10T08:03:47;102187.20;;;-7.94;68.69
50682;BME280;36779;52.168;20.878;2024-01-10T08:06:38;102186.17;;;-7.89;68.62
50682;BME280;36779;52.168;20.878;2024-01-10T08:09:11;102190.83;;;-7.89;68.59
50682;BME280;36779;52.168;20.878;2024-01-10T08:12:08;102193.92;;;-7.88;68.58
50682;BME280;36779;52.168;20.878;2024-01-10T08:15:06;102194.80;;;-7.86;68.59
50682;BME280;36779;52.168;20.878;2024-01-10T08:17:59;102195.48;;;-7.80;68.55
50682;BME280;36779;52.168;20.878;2024-01-10T08:20:56;102193.06;;;-7.75;68.58
50682;BME280;36779;52.168;20.878;2024-01-10T08:23:50;102192.36;;;-7.69;68.69
50682;BME280;36779;52.168;20.878;2024-01-10T08:26:44;102193.22;;;-7.65;68.78
50682;BME280;36779;52.168;20.878;2024-01-10T08:29:38;102190.80;;;-7.62;68.68
50682;BME280;36779;52.168;20.878;2024-01-10T08:32:41;102194.57;;;-7.53;68.77
50682;BME280;36779;52.168;20.878;2024-01-10T08:35:42;102192.31;;;-7.45;68.70
50682;BME280;36779;52.168;20.878;2024-01-10T08:38:37;102189.20;;;-7.40;68.81
50682;BME280;36779;52.168;20.878;2024-01-10T08:41:32;102187.98;;;-7.37;68.80
50682;BME280;36779;52.168;20.878;2024-01-10T08:44:33;102185.70;;;-7.28;68.84
50682;BME280;36779;52.168;20.878;2024-01-10T08:47:26;102186.52;;;-7.15;69.07
50682;BME280;36779;52.168;20.878;2024-01-10T08:50:23;102185.97;;;-7.05;69.02
50682;BME280;36779;52.168;20.878;2024-01-10T08:53:05;102183.20;;;-7.02;69.02
50682;BME280;36779;52.168;20.878;2024-01-10T08:56:01;102176.77;;;-6.98;68.93
50682;BME280;36779;52.168;20.878;2024-01-10T08:59:00;102175.03;;;-6.93;68.98
50682;BME280;36779;52.168;20.878;2024-01-10T09:01:57;102177.07;;;-6.85;68.95
50682;BME280;36779;52.168;20.878;2024-01-10T09:04:51;102178.77;;;-6.78;69.03
50682;BME280;36779;52.168;20.878;2024-01-10T09:07:43;102176.48;;;-6.73;69.13
50682;BME280;36779;52.168;20.878;2024-01-10T09:10:36;102177.66;;;-6.66;69.18
50682;BME280;36779;52.168;20.878;2024-01-10T09:13:24;102184.19;;;-6.61;69.12
50682;BME280;36779;52.168;20.878;2024-01-10T09:16:25;102185.22;;;-6.57;68.98
50682;BME280;36779;52.168;20.878;2024-01-10T09:19:23;102184.29;;;-6.24;69.22
50682;BME280;36779;52.168;20.878;2024-01-10T09:22:23;102182.42;;;-6.06;69.16
50682;BME280;36779;52.168;20.878;2024-01-10T09:25:18;102187.36;;;-6.16;68.63
50682;BME280;36779;52.168;20.878;2024-01-10T09:28:13;102187.09;;;-6.27;68.58
50682;BME280;36779;52.168;20.878;2024-01-10T09:30:49;102186.59;;;-6.30;68.79
50682;BME280;36779;52.168;20.878;2024-01-10T09:33:43;102189.91;;;-6.34;68.86
50682;BME280;36779;52.168;20.878;2024-01-10T09:36:37;102185.10;;;-6.38;68.77
50682;BME280;36779;52.168;20.878;2024-01-10T09:39:30;102184.93;;;-6.41;68.94
50682;BME280;36779;52.168;20.878;2024-01-10T09:42:25;102182.70;;;-6.43;68.97
50682;BME280;36779;52.168;20.878;2024-01-10T09:45:26;102178.74;;;-6.46;68.85
50682;BME280;36779;52.168;20.878;2024-01-10T09:48:20;102178.91;;;-6.46;68.97
50682;BME280;36779;52.168;20.878;2024-01-10T09:51:17;102186.16;;;-6.44;69.16
50682;BME280;36779;52.168;20.878;2024-01-10T09:53:52;102186.68;;;-6.43;69.24
50682;BME280;36779;52.168;20.878;2024-01-10T09:56:31;102187.70;;;-6.38;69.23
50682;BME280;36779;52.168;20.878;2024-01-10T09:59:15;102188.70;;;-6.35;69.27
50682;BME280;36779;52.168;20.878;2024-01-10T10:01:58;102182.92;;;-6.27;69.22
50682;BME280;36779;52.168;20.878;2024-01-10T10:04:35;102180.29;;;-6.00;69.38
50682;BME280;36779;52.168;20.878;2024-01-10T10:07:20;102182.75;;;-5.51;69.78
50682;BME280;36779;52.168;20.878;2024-01-10T10:10:15;102186.45;;;-4.96;69.73
50682;BME280;36779;52.168;20.878;2024-01-10T10:13:08;102190.97;;;-4.45;69.58
50682;BME280;36779;52.168;20.878;2024-01-10T10:16:01;102187.15;;;-3.79;70.22
50682;BME280;36779;52.168;20.878;2024-01-10T10:19:24;102178.29;;;-2.89;70.46
50682;BME280;36779;52.168;20.878;2024-01-10T10:22:32;102174.62;;;-2.12;70.50
50682;BME280;36779;52.168;20.878;2024-01-10T10:25:19;102168.11;;;-1.48;70.51
50682;BME280;36779;52.168;20.878;2024-01-10T10:28:12;102163.47;;;-1.07;69.91
50682;BME280;36779;52.168;20.878;2024-01-10T10:31:11;102160.45;;;-0.75;69.48
50682;BME280;36779;52.168;20.878;2024-01-10T10:34:03;102159.96;;;-0.48;69.12
50682;BME280;36779;52.168;20.878;2024-01-10T10:36:56;102153.09;;;-0.08;69.44
50682;BME280;36779;52.168;20.878;2024-01-10T10:39:54;102143.80;;;0.29;69.18
50682;BME280;36779;52.168;20.878;2024-01-10T10:42:53;102136.44;;;0.54;69.08
50682;BME280;36779;52.168;20.878;2024-01-10T10:45:50;102131.24;;;0.86;69.17
50682;BME280;36779;52.168;20.878;2024-01-10T10:48:45;102122.42;;;1.25;69.33
50682;BME280;36779;52.168;20.878;2024-01-10T10:51:34;102118.45;;;1.54;69.35
50682;BME280;36779;52.168;20.878;2024-01-10T10:54:30;102112.30;;;1.80;69.22
50682;BME280;36779;52.168;20.878;2024-01-10T10:57:22;102105.27;;;1.93;69.05
50682;BME280;36779;52.168;20.878;2024-01-10T11:00:36;102106.98;;;1.98;68.86
50682;BME280;36779;52.168;20.878;2024-01-10T11:03:36;102105.54;;;2.16;68.82
50682;BME280;36779;52.168;20.878;2024-01-10T11:06:30;102105.70;;;2.12;68.50
50682;BME280;36779;52.168;20.878;2024-01-10T11:09:47;102104.30;;;2.08;68.37
50682;BME280;36779;52.168;20.878;2024-01-10T11:13:02;102102.34;;;1.96;67.91
50682;BME280;36779;52.168;20.878;2024-01-10T11:16:47;102100.10;;;1.70;67.66
50682;BME280;36779;52.168;20.878;2024-01-10T11:20:04;102093.66;;;1.69;68.03
50682;BME280;36779;52.168;20.878;2024-01-10T11:23:36;102093.48;;;1.48;68.00
50682;BME280;36779;52.168;20.878;2024-01-10T11:26:14;102087.20;;;1.12;68.08
50682;BME280;36779;52.168;20.878;2024-01-10T11:29:08;102090.05;;;0.69;68.16
50682;BME280;36779;52.168;20.878;2024-01-10T11:32:04;102085.25;;;0.18;67.88
50682;BME280;36779;52.168;20.878;2024-01-10T11:34:39;102085.68;;;-0.25;68.21
50682;BME280;36779;52.168;20.878;2024-01-10T11:37:43;102083.58;;;-0.68;68.13
50682;BME280;36779;52.168;20.878;2024-01-10T11:40:52;102081.75;;;-1.28;67.70
50682;BME280;36779;52.168;20.878;2024-01-10T11:43:46;102076.45;;;-1.82;67.93
50682;BME280;36779;52.168;20.878;2024-01-10T11:46:43;102077.50;;;-2.15;68.28
50682;BME280;36779;52.168;20.878;2024-01-10T11:49:34;102074.20;;;-2.43;68.41
50682;BME280;36779;52.168;20.878;2024-01-10T11:52:22;102069.87;;;-2.66;68.38
50682;BME280;36779;52.168;20.878;2024-01-10T11:55:04;102067.14;;;-2.90;68.45
50682;BME280;36779;52.168;20.878;2024-01-10T11:58:09;102066.73;;;-3.10;68.58
50682;BME280;36779;52.168;20.878;2024-01-10T12:01:03;102064.05;;;-3.23;68.74
50682;BME280;36779;52.168;20.878;2024-01-10T12:04:04;102056.66;;;-3.35;68.70
50682;BME280;36779;52.168;20.878;2024-01-10T12:07:11;102052.61;;;-3.49;68.78
50682;BME280;36779;52.168;20.878;2024-01-10T12:09:51;102045.04;;;-3.62;68.64
50682;BME280;36779;52.168;20.878;2024-01-10T12:12:41;102049.02;;;-3.70;68.79
50682;BME280;36779;52.168;20.878;2024-01-10T12:15:37;102052.05;;;-3.73;68.93
50682;BME280;36779;52.168;20.878;2024-01-10T12:18:23;102055.94;;;-3.77;69.04
50682;BME280;36779;52.168;20.878;2024-01-10T12:21:18;102053.95;;;-3.83;68.76
50682;BME280;36779;52.168;20.878;2024-01-10T12:24:11;102053.77;;;-3.91;68.68
50682;BME280;36779;52.168;20.878;2024-01-10T12:27:05;102051.95;;;-3.95;68.71
50682;BME280;36779;52.168;20.878;2024-01-10T12:30:02;102045.01;;;-3.97;68.89
50682;BME280;36779;52.168;20.878;2024-01-10T12:32:57;102043.80;;;-3.96;68.88
50682;BME280;36779;52.168;20.878;2024-01-10T12:36:01;102045.42;;;-4.00;68.85
50682;BME280;36779;52.168;20.878;2024-01-10T12:38:44;102046.82;;;-3.99;68.94
50682;BME280;36779;52.168;20.878;2024-01-10T12:41:40;102051.30;;;-3.98;68.97
50682;BME280;36779;52.168;20.878;2024-01-10T12:44:34;102050.26;;;-3.98;68.79
50682;BME280;36779;52.168;20.878;2024-01-10T12:47:30;102048.58;;;-4.01;68.91
50682;BME280;36779;52.168;20.878;2024-01-10T12:50:24;102053.70;;;-4.05;68.77
50682;BME280;36779;52.168;20.878;2024-01-10T12:53:17;102051.13;;;-4.08;68.89
50682;BME280;36779;52.168;20.878;2024-01-10T12:55:56;102049.26;;;-4.10;68.79
50682;BME280;36779;52.168;20.878;2024-01-10T12:58:55;102039.14;;;-4.16;68.63
50682;BME280;36779;52.168;20.878;2024-01-10T13:02:08;102039.98;;;-4.25;68.53
50682;BME280;36779;52.168;20.878;2024-01-10T13:05:02;102040.27;;;-4.32;68.60
50682;BME280;36779;52.168;20.878;2024-01-10T13:07:48;102035.16;;;-4.37;68.49
50682;BME280;36779;52.168;20.878;2024-01-10T13:11:00;102035.04;;;-4.40;68.56
50682;BME280;36779;52.168;20.878;2024-01-10T13:14:06;102032.17;;;-4.45;68.61
50682;BME280;36779;52.168;20.878;2024-01-10T13:16:48;102032.39;;;-4.48;68.54
50682;BME280;36779;52.168;20.878;2024-01-10T13:19:35;102030.56;;;-4.53;68.63
50682;BME280;36779;52.168;20.878;2024-01-10T13:22:35;102030.99;;;-4.58;68.53
50682;BME280;36779;52.168;20.878;2024-01-10T13:25:08;102033.67;;;-4.63;68.38
50682;BME280;36779;52.168;20.878;2024-01-10T13:28:06;102031.52;;;-4.68;68.49
50682;BME280;36779;52.168;20.878;2024-01-10T13:31:11;102030.67;;;-4.70;68.57
50682;BME280;36779;52.168;20.878;2024-01-10T13:34:10;102028.96;;;-4.72;68.61
50682;BME280;36779;52.168;20.878;2024-01-10T13:36:55;102024.33;;;-4.74;68.54
50682;BME280;36779;52.168;20.878;2024-01-10T13:39:42;102023.34;;;-4.78;68.51
50682;BME280;36779;52.168;20.878;2024-01-10T13:42:31;102022.02;;;-4.81;68.48
50682;BME280;36779;52.168;20.878;2024-01-10T13:45:19;102019.13;;;-4.85;68.53
50682;BME280;36779;52.168;20.878;2024-01-10T13:48:24;102012.79;;;-4.90;68.49
50682;BME280;36779;52.168;20.878;2024-01-10T13:51:39;102011.65;;;-4.96;68.45
50682;BME280;36779;52.168;20.878;2024-01-10T13:55:00;102004.80;;;-5.00;68.46
50682;BME280;36779;52.168;20.878;2024-01-10T13:57:53;102000.50;;;-5.04;68.40
50682;BME280;36779;52.168;20.878;2024-01-10T14:00:53;101997.42;;;-5.06;68.40
50682;BME280;36779;52.168;20.878;2024-01-10T14:04:30;101995.59;;;-5.11;68.32
50682;BME280;36779;52.168;20.878;2024-01-10T14:08:06;101995.84;;;-5.16;68.31
50682;BME280;36779;52.168;20.878;2024-01-10T14:11:03;101998.18;;;-5.22;68.34
50682;BME280;36779;52.168;20.878;2024-01-10T14:14:12;101989.44;;;-5.29;68.22
50682;BME280;36779;52.168;20.878;2024-01-10T14:16:47;101991.40;;;-5.32;68.18
50682;BME280;36779;52.168;20.878;2024-01-10T14:19:53;101988.33;;;-5.36;68.19
50682;BME280;36779;52.168;20.878;2024-01-10T14:23:35;101987.20;;;-5.42;68.21
50682;BME280;36779;52.168;20.878;2024-01-10T14:26:25;101984.64;;;-5.46;68.11
50682;BME280;36779;52.168;20.878;2024-01-10T14:29:55;101977.44;;;-5.50;68.13
50682;BME280;36779;52.168;20.878;2024-01-10T14:32:54;101981.85;;;-5.56;68.19
50682;BME280;36779;52.168;20.878;2024-01-10T14:35:40;101978.46;;;-5.61;68.08
50682;BME280;36779;52.168;20.878;2024-01-10T14:39:03;101974.17;;;-5.65;68.06
50682;BME280;36779;52.168;20.878;2024-01-10T14:41:43;101973.02;;;-5.70;68.08
50682;BME280;36779;52.168;20.878;2024-01-10T14:44:45;101966.83;;;-5.73;68.22
50682;BME280;36779;52.168;20.878;2024-01-10T14:47:58;101970.52;;;-5.78;68.01
50682;BME280;36779;52.168;20.878;2024-01-10T14:51:12;101961.41;;;-5.83;68.05
50682;BME280;36779;52.168;20.878;2024-01-10T14:54:08;101956.77;;;-5.86;68.17
50682;BME280;36779;52.168;20.878;2024-01-10T14:57:10;101962.35;;;-5.88;68.06
50682;BME280;36779;52.168;20.878;2024-01-10T15:00:06;101957.16;;;-5.89;68.03
50682;BME280;36779;52.168;20.878;2024-01-10T15:03:04;101947.76;;;-5.86;68.18
50682;BME280;36779;52.168;20.878;2024-01-10T15:06:07;101941.80;;;-5.80;68.12